createdAt,value
2023-03-22T00:01:31.183Z,5.10
2023-03-22T00:03:59.211Z,4.95
2023-03-22T00:06:27.335Z,4.78
2023-03-22T00:08:55.579Z,5.10
2023-03-22T00:11:27.294Z,5.45
2023-03-22T00:13:55.029Z,5.57
2023-03-22T00:16:23.062Z,5.15
2023-03-22T00:18:51.417Z,5.50
2023-03-22T00:21:19.231Z,5.30
2023-03-22T00:23:47.036Z,5.10
2023-03-22T00:26:15.520Z,5.32
2023-03-22T00:28:43.550Z,5.37
2023-03-22T00:31:11.574Z,5.37
2023-03-22T00:33:39.420Z,5.40
2023-03-22T00:36:09.842Z,5.32
2023-03-22T00:38:42.996Z,5.87
2023-03-22T00:41:12.482Z,5.40
2023-03-22T00:43:40.727Z,5.35
2023-03-22T00:46:09.307Z,5.37
2023-03-22T00:48:37.100Z,6.10
2023-03-22T00:51:05.690Z,5.47
2023-03-22T00:53:34.336Z,5.82
2023-03-22T00:56:01.926Z,6.03
2023-03-22T00:58:30.798Z,5.90
2023-03-22T01:00:59.158Z,5.70
2023-03-22T01:03:28.069Z,5.53
2023-03-22T01:05:55.993Z,5.70
2023-03-22T01:08:24.313Z,5.40
2023-03-22T01:10:52.292Z,5.60
2023-03-22T01:13:20.165Z,6.03
2023-03-22T01:15:50.941Z,6.40
2023-03-22T01:18:18.943Z,5.90
2023-03-22T01:20:46.987Z,6.00
2023-03-22T01:23:14.656Z,5.77
2023-03-22T01:25:42.193Z,6.70
2023-03-22T01:28:10.347Z,6.22
2023-03-22T01:30:40.961Z,6.45
2023-03-22T01:33:09.357Z,6.62
2023-03-22T01:35:37.515Z,7.03
2023-03-22T01:38:05.788Z,6.82
2023-03-22T01:40:35.040Z,6.75
2023-03-22T01:43:03.471Z,6.87
2023-03-22T01:45:40.362Z,6.95
2023-03-22T01:48:15.001Z,6.60
2023-03-22T01:50:47.997Z,6.53
2023-03-22T01:53:19.064Z,7.50
2023-03-22T01:55:47.332Z,7.30
2023-03-22T01:58:18.084Z,7.43
2023-03-22T02:00:48.422Z,7.20
2023-03-22T02:03:22.246Z,7.07
2023-03-22T02:05:50.065Z,7.03
2023-03-22T02:08:18.095Z,7.03
2023-03-22T02:10:46.990Z,7.55
2023-03-22T02:13:29.988Z,6.70
2023-03-22T02:16:10.890Z,7.37
2023-03-22T02:18:39.210Z,6.47
2023-03-22T02:21:25.748Z,7.70
2023-03-22T02:24:25.246Z,7.47
2023-03-22T02:27:00.034Z,7.07
2023-03-22T02:29:46.003Z,6.85
2023-03-22T02:32:31.966Z,8.05
2023-03-22T02:35:21.240Z,7.90
2023-03-22T02:38:10.524Z,7.72
2023-03-22T02:41:03.584Z,7.30
2023-03-22T02:43:46.168Z,7.50
2023-03-22T02:46:42.976Z,8.25
2023-03-22T02:49:16.920Z,7.90
2023-03-22T02:52:12.471Z,8.48
2023-03-22T02:54:44.816Z,8.47
2023-03-22T02:57:17.801Z,7.47
2023-03-22T02:59:46.125Z,8.55
2023-03-22T03:02:17.394Z,7.87
2023-03-22T03:04:48.694Z,7.68
2023-03-22T03:07:19.545Z,8.37
2023-03-22T03:09:48.341Z,7.93
2023-03-22T03:12:21.928Z,8.48
2023-03-22T03:14:51.867Z,8.68
2023-03-22T03:17:56.496Z,8.70
2023-03-22T03:20:39.079Z,9.53
2023-03-22T03:23:14.529Z,8.85
2023-03-22T03:25:49.029Z,9.00
2023-03-22T03:28:23.002Z,9.15
2023-03-22T03:31:01.468Z,8.93
2023-03-22T03:33:31.666Z,8.87
2023-03-22T03:36:03.225Z,8.68
2023-03-22T03:38:34.365Z,8.50
2023-03-22T03:41:05.092Z,9.05
2023-03-22T03:43:34.077Z,9.43
2023-03-22T03:46:02.200Z,9.80
2023-03-22T03:48:33.774Z,9.27
2023-03-22T03:51:02.158Z,9.57
2023-03-22T03:53:30.554Z,9.65
2023-03-22T03:55:58.330Z,8.43
2023-03-22T03:58:30.731Z,10.00
2023-03-22T04:00:58.956Z,9.63
2023-03-22T04:03:27.827Z,9.48
2023-03-22T04:05:56.906Z,9.60
2023-03-22T04:08:24.637Z,9.55
2023-03-22T04:10:52.667Z,8.97
2023-03-22T04:13:21.689Z,9.85
2023-03-22T04:15:53.821Z,9.95
2023-03-22T04:18:21.648Z,10.20
2023-03-22T04:20:53.536Z,10.00
2023-03-22T04:23:23.242Z,9.67
2023-03-22T04:25:51.949Z,8.38
2023-03-22T04:28:20.582Z,9.43
2023-03-22T04:30:52.636Z,9.60
2023-03-22T04:33:23.297Z,9.63
2023-03-22T04:35:57.015Z,9.47
2023-03-22T04:38:25.858Z,9.13
2023-03-22T04:40:55.379Z,10.40
2023-03-22T04:43:24.816Z,9.90
2023-03-22T04:45:54.875Z,10.43
2023-03-22T04:48:24.365Z,10.80
2023-03-22T04:50:53.525Z,12.32
2023-03-22T04:53:27.417Z,11.68
2023-03-22T04:55:59.056Z,11.45
2023-03-22T04:58:27.629Z,11.10
2023-03-22T05:00:55.526Z,10.50
2023-03-22T05:03:23.601Z,11.63
2023-03-22T05:05:57.043Z,12.13
2023-03-22T05:08:26.286Z,10.77
2023-03-22T05:10:55.814Z,9.93
2023-03-22T05:13:25.529Z,11.00
2023-03-22T05:15:54.956Z,9.70
2023-03-22T05:18:27.771Z,10.95
2023-03-22T05:20:57.181Z,10.70
2023-03-22T05:23:25.269Z,10.85
2023-03-22T05:25:54.312Z,11.63
2023-03-22T05:28:22.321Z,9.95
2023-03-22T05:30:51.548Z,9.43
2023-03-22T05:33:22.759Z,10.40
2023-03-22T05:35:51.948Z,10.57
2023-03-22T05:38:22.853Z,8.97
2023-03-22T05:40:51.350Z,9.68
2023-03-22T05:43:22.152Z,10.02
2023-03-22T05:45:51.123Z,8.65
2023-03-22T05:48:22.720Z,10.35
2023-03-22T05:50:50.551Z,10.40
2023-03-22T05:53:18.395Z,10.90
2023-03-22T05:55:46.905Z,10.48
2023-03-22T05:58:30.819Z,10.10
2023-03-22T06:01:01.878Z,10.20
2023-03-22T06:03:43.790Z,11.27
2023-03-22T06:06:18.234Z,11.82
2023-03-22T06:08:46.740Z,10.60
2023-03-22T06:11:14.490Z,10.43
2023-03-22T06:13:42.388Z,10.82
2023-03-22T06:16:11.162Z,11.37
2023-03-22T06:18:39.101Z,13.02
2023-03-22T06:21:07.639Z,12.30
2023-03-22T06:23:36.441Z,9.88
2023-03-22T06:26:07.163Z,9.77
2023-03-22T06:28:38.362Z,10.40
2023-03-22T06:31:10.402Z,9.27
2023-03-22T06:33:39.059Z,12.07
2023-03-22T06:36:07.466Z,12.23
2023-03-22T06:38:35.848Z,11.18
2023-03-22T06:41:04.182Z,10.00
2023-03-22T06:43:32.632Z,9.80
2023-03-22T06:46:01.634Z,10.77
2023-03-22T06:48:31.742Z,10.30
2023-03-22T06:51:02.660Z,10.40
2023-03-22T06:53:31.432Z,9.53
2023-03-22T06:55:59.261Z,10.60
2023-03-22T06:58:27.959Z,10.13
2023-03-22T07:00:57.244Z,9.10
2023-03-22T07:03:24.904Z,9.63
2023-03-22T07:05:53.422Z,9.60
2023-03-22T07:08:21.580Z,8.75
2023-03-22T07:10:51.268Z,8.45
2023-03-22T07:13:19.571Z,8.60
2023-03-22T07:15:48.031Z,8.95
2023-03-22T07:18:17.164Z,7.80
2023-03-22T07:20:45.842Z,9.07
2023-03-22T07:23:13.829Z,8.60
2023-03-22T07:25:43.664Z,7.95
2023-03-22T07:28:12.528Z,8.55
2023-03-22T07:30:40.831Z,7.60
2023-03-22T07:33:12.416Z,8.85
2023-03-22T07:35:41.542Z,8.38
2023-03-22T07:38:09.825Z,8.23
2023-03-22T07:40:41.767Z,8.05
2023-03-22T07:43:13.213Z,7.73
2023-03-22T07:45:41.996Z,8.32
2023-03-22T07:48:15.786Z,8.80
2023-03-22T07:50:45.456Z,8.65
2023-03-22T07:53:14.139Z,8.02
2023-03-22T07:55:44.481Z,8.13
2023-03-22T07:58:12.314Z,7.65
2023-03-22T08:00:40.971Z,8.88
2023-03-22T08:03:15.495Z,7.85
2023-03-22T08:05:44.393Z,8.73
2023-03-22T08:08:13.658Z,8.67
2023-03-22T08:10:41.730Z,8.20
2023-03-22T08:13:09.685Z,7.87
2023-03-22T08:15:38.833Z,7.43
2023-03-22T08:18:08.739Z,7.70
2023-03-22T08:20:38.344Z,6.83
2023-03-22T08:23:11.420Z,7.47
2023-03-22T08:25:55.514Z,7.40
2023-03-22T08:28:23.990Z,8.52
2023-03-22T08:30:51.933Z,7.62
2023-03-22T08:33:22.059Z,7.83
2023-03-22T08:35:51.105Z,7.15
2023-03-22T08:38:19.721Z,8.35
2023-03-22T08:40:48.252Z,8.38
2023-03-22T08:43:18.845Z,8.40
2023-03-22T08:45:47.732Z,6.90
2023-03-22T08:48:16.120Z,8.45
2023-03-22T08:50:45.120Z,7.25
2023-03-22T08:53:15.939Z,6.57
2023-03-22T08:55:47.672Z,6.93
2023-03-22T08:58:23.945Z,6.73
2023-03-22T09:00:53.088Z,6.55
2023-03-22T09:03:24.989Z,7.35
2023-03-22T09:05:53.472Z,7.35
2023-03-22T09:08:22.040Z,7.65
2023-03-22T09:10:52.199Z,7.47
2023-03-22T09:13:20.712Z,7.43
2023-03-22T09:15:48.892Z,6.30
2023-03-22T09:18:17.469Z,7.05
2023-03-22T09:20:46.674Z,7.30
2023-03-22T09:23:17.968Z,7.13
2023-03-22T09:25:46.973Z,7.22
2023-03-22T09:28:17.522Z,7.35
2023-03-22T09:30:45.609Z,7.03
2023-03-22T09:33:13.897Z,6.72
2023-03-22T09:35:43.071Z,6.27
2023-03-22T09:38:13.796Z,6.30
2023-03-22T09:40:52.100Z,5.80
2023-03-22T09:43:20.972Z,7.18
2023-03-22T09:45:50.485Z,6.50
2023-03-22T09:48:23.187Z,7.00
2023-03-22T09:50:53.359Z,6.87
2023-03-22T09:53:24.277Z,6.65
2023-03-22T09:56:00.328Z,6.47
2023-03-22T09:58:34.446Z,6.30
2023-03-22T10:01:14.272Z,5.93
2023-03-22T10:03:54.527Z,5.43
2023-03-22T10:06:28.226Z,5.95
2023-03-22T10:09:27.145Z,6.18
2023-03-22T10:12:22.526Z,6.65
2023-03-22T10:14:56.559Z,5.40
2023-03-22T10:17:25.800Z,5.65
2023-03-22T10:20:08.888Z,5.05
2023-03-22T10:22:40.275Z,5.20
2023-03-22T10:25:10.007Z,4.95
2023-03-22T10:27:37.982Z,5.23
2023-03-22T10:30:21.817Z,4.95
2023-03-22T10:33:04.844Z,5.03
2023-03-22T10:35:32.556Z,5.97
2023-03-22T10:38:02.879Z,5.18
2023-03-22T10:40:33.212Z,5.07
2023-03-22T10:43:06.088Z,4.68
2023-03-22T10:45:35.372Z,5.53
2023-03-22T10:48:27.342Z,4.80
2023-03-22T10:50:55.611Z,4.15
2023-03-22T10:53:44.042Z,4.67
2023-03-22T10:56:15.319Z,4.70
2023-03-22T10:58:43.169Z,4.30
2023-03-22T11:01:17.285Z,4.03
2023-03-22T11:03:49.555Z,3.47
2023-03-22T11:06:23.511Z,3.80
2023-03-22T11:08:54.431Z,3.85
2023-03-22T11:11:35.124Z,4.12
2023-03-22T11:14:14.985Z,4.28
2023-03-22T11:17:20.510Z,3.80
2023-03-22T11:20:02.277Z,3.33
2023-03-22T11:22:41.490Z,2.85
2023-03-22T11:25:21.870Z,3.33
2023-03-22T11:27:52.097Z,2.28
2023-03-22T11:30:28.518Z,1.73
2023-03-22T11:33:03.985Z,2.73
2023-03-22T11:35:32.368Z,2.70
2023-03-22T11:38:02.489Z,2.65
2023-03-22T11:40:36.306Z,2.33
2023-03-22T11:43:20.751Z,2.40
2023-03-22T11:45:57.816Z,2.57
2023-03-22T11:48:33.559Z,2.78
2023-03-22T11:51:20.565Z,2.62
2023-03-22T11:53:49.997Z,2.17
2023-03-22T11:56:30.429Z,2.75
2023-03-22T11:59:08.796Z,2.50
2023-03-22T12:01:43.264Z,1.90
2023-03-22T12:04:18.083Z,2.22
2023-03-22T12:06:45.891Z,2.75
2023-03-22T12:09:33.190Z,2.03
2023-03-22T12:12:03.715Z,1.70
2023-03-22T12:14:51.899Z,2.05
2023-03-22T12:17:36.254Z,2.10
2023-03-22T12:20:18.024Z,2.22
2023-03-22T12:22:52.789Z,2.72
2023-03-22T12:25:35.351Z,2.07
2023-03-22T12:28:07.682Z,2.15
2023-03-22T12:30:49.655Z,2.25
2023-03-22T12:33:30.060Z,2.42
2023-03-22T12:36:03.606Z,1.70
2023-03-22T12:38:48.380Z,2.40
2023-03-22T12:41:22.354Z,2.47
2023-03-22T12:43:54.737Z,2.37
2023-03-22T12:46:58.221Z,2.10
2023-03-22T12:49:47.991Z,1.80
2023-03-22T12:52:21.078Z,2.17
2023-03-22T12:54:50.198Z,2.97
2023-03-22T12:57:18.490Z,7.43
2023-03-22T12:59:49.780Z,2.10
2023-03-22T13:02:32.524Z,2.17
2023-03-22T13:05:04.920Z,2.10
2023-03-22T13:07:41.915Z,1.50
2023-03-22T13:10:32.466Z,1.40
2023-03-22T13:13:21.332Z,1.73
2023-03-22T13:16:13.757Z,1.40
2023-03-22T13:18:44.072Z,1.43
2023-03-22T13:21:15.432Z,1.40
2023-03-22T13:24:05.970Z,1.80
2023-03-22T13:26:38.693Z,1.87
2023-03-22T13:29:16.348Z,1.45
2023-03-22T13:31:47.753Z,1.60
2023-03-22T13:34:19.184Z,1.23
2023-03-22T13:36:54.166Z,1.75
2023-03-22T13:39:25.115Z,1.40
2023-03-22T13:42:07.382Z,1.70
2023-03-22T13:44:40.454Z,2.80
2023-03-22T13:47:38.042Z,2.22
2023-03-22T13:50:11.297Z,1.35
2023-03-22T13:52:52.124Z,1.75
2023-03-22T13:55:41.559Z,2.08
2023-03-22T13:58:48.365Z,1.90
2023-03-22T14:01:22.147Z,1.33
2023-03-22T14:03:50.746Z,1.42
2023-03-22T14:06:24.487Z,1.87
2023-03-22T14:08:57.553Z,1.48
2023-03-22T14:11:40.966Z,1.87
2023-03-22T14:14:16.379Z,1.40
2023-03-22T14:16:47.399Z,1.58
2023-03-22T14:19:29.617Z,1.55
